sensor_id;sensor_type;location;lat;lon;timestamp;P1;durP1;ratioP1;P2;durP2;ratioP2
54557;SDS011;40452;50.080;20.040;2022-07-23T00:00:34;17.52;;;11.70;;
54557;SDS011;40452;50.080;20.040;2022-07-23T00:03:00;18.60;;;11.45;;
54557;SDS011;40452;50.080;20.040;2022-07-23T00:05:25;15.75;;;11.38;;
54557;SDS011;40452;50.080;20.040;2022-07-23T00:07:51;14.63;;;11.45;;
54557;SDS011;40452;50.080;20.040;2022-07-23T00:10:17;16.02;;;11.52;;
54557;SDS011;40452;50.080;20.040;2022-07-23T00:12:42;16.88;;;11.70;;
54557;SDS011;40452;50.080;20.040;2022-07-23T00:15:08;17.77;;;11.77;;
54557;SDS011;40452;50.080;20.040;2022-07-23T00:17:34;14.50;;;12.13;;
54557;SDS011;40452;50.080;20.040;2022-07-23T03:04:05;16.50;;;10.20;;
54557;SDS011;40452;50.080;20.040;2022-07-23T03:06:31;13.95;;;9.70;;
54557;SDS011;40452;50.080;20.040;2022-07-23T03:08:56;14.35;;;9.90;;
54557;SDS011;40452;50.080;20.040;2022-07-23T03:11:22;15.93;;;10.95;;
54557;SDS011;40452;50.080;20.040;2022-07-23T03:13:47;15.68;;;10.88;;
54557;SDS011;40452;50.080;20.040;2022-07-23T03:16:13;16.35;;;10.65;;
54557;SDS011;40452;50.080;20.040;2022-07-23T03:18:38;16.52;;;10.75;;
54557;SDS011;40452;50.080;20.040;2022-07-23T03:21:04;18.02;;;10.63;;
54557;SDS011;40452;50.080;20.040;2022-07-23T03:23:29;15.35;;;10.63;;
54557;SDS011;40452;50.080;20.040;2022-07-23T03:25:55;15.57;;;10.80;;
54557;SDS011;40452;50.080;20.040;2022-07-23T03:28:20;15.70;;;11.13;;
54557;SDS011;40452;50.080;20.040;2022-07-23T03:30:46;19.30;;;10.98;;
54557;SDS011;40452;50.080;20.040;2022-07-23T03:33:13;13.32;;;10.65;;
54557;SDS011;40452;50.080;20.040;2022-07-23T03:35:39;16.05;;;10.70;;
54557;SDS011;40452;50.080;20.040;2022-07-23T03:38:05;13.52;;;10.95;;
54557;SDS011;40452;50.080;20.040;2022-07-23T03:40:31;17.33;;;10.43;;
54557;SDS011;40452;50.080;20.040;2022-07-23T03:42:56;17.33;;;11.10;;
54557;SDS011;40452;50.080;20.040;2022-07-23T03:45:22;16.45;;;11.32;;
54557;SDS011;40452;50.080;20.040;2022-07-23T03:47:47;17.80;;;11.13;;
54557;SDS011;40452;50.080;20.040;2022-07-23T03:50:13;15.65;;;11.07;;
54557;SDS011;40452;50.080;20.040;2022-07-23T03:52:39;18.00;;;11.18;;
54557;SDS011;40452;50.080;20.040;2022-07-23T03:55:04;12.68;;;10.40;;
54557;SDS011;40452;50.080;20.040;2022-07-23T03:57:30;16.42;;;11.73;;
54557;SDS011;40452;50.080;20.040;2022-07-23T03:59:56;15.73;;;10.18;;
54557;SDS011;40452;50.080;20.040;2022-07-23T04:02:21;18.00;;;11.15;;
54557;SDS011;40452;50.080;20.040;2022-07-23T04:04:47;18.52;;;10.95;;
54557;SDS011;40452;50.080;20.040;2022-07-23T04:07:13;14.18;;;10.50;;
54557;SDS011;40452;50.080;20.040;2022-07-23T04:09:42;17.63;;;10.93;;
54557;SDS011;40452;50.080;20.040;2022-07-23T04:12:08;13.40;;;10.07;;
54557;SDS011;40452;50.080;20.040;2022-07-23T04:14:33;14.65;;;10.40;;
54557;SDS011;40452;50.080;20.040;2022-07-23T04:16:59;16.88;;;10.35;;
54557;SDS011;40452;50.080;20.040;2022-07-23T04:19:25;15.00;;;10.07;;
54557;SDS011;40452;50.080;20.040;2022-07-23T04:21:50;14.73;;;10.65;;
54557;SDS011;40452;50.080;20.040;2022-07-23T04:24:16;13.93;;;10.48;;
54557;SDS011;40452;50.080;20.040;2022-07-23T04:26:42;18.17;;;11.00;;
54557;SDS011;40452;50.080;20.040;2022-07-23T04:29:08;15.80;;;11.05;;
54557;SDS011;40452;50.080;20.040;2022-07-23T04:31:34;14.50;;;10.60;;
54557;SDS011;40452;50.080;20.040;2022-07-23T04:33:59;15.35;;;10.27;;
54557;SDS011;40452;50.080;20.040;2022-07-23T04:36:25;13.73;;;10.93;;
54557;SDS011;40452;50.080;20.040;2022-07-23T04:38:50;14.35;;;10.45;;
54557;SDS011;40452;50.080;20.040;2022-07-23T04:41:16;16.45;;;11.32;;
54557;SDS011;40452;50.080;20.040;2022-07-23T04:43:41;15.63;;;10.30;;
54557;SDS011;40452;50.080;20.040;2022-07-23T04:46:07;17.98;;;11.40;;
54557;SDS011;40452;50.080;20.040;2022-07-23T04:48:33;16.73;;;11.00;;
54557;SDS011;40452;50.080;20.040;2022-07-23T04:50:58;16.08;;;10.50;;
54557;SDS011;40452;50.080;20.040;2022-07-23T04:53:24;14.40;;;10.75;;
54557;SDS011;40452;50.080;20.040;2022-07-23T04:55:49;17.05;;;10.85;;
54557;SDS011;40452;50.080;20.040;2022-07-23T04:58:15;13.60;;;10.02;;
54557;SDS011;40452;50.080;20.040;2022-07-23T05:00:40;12.15;;;9.98;;
54557;SDS011;40452;50.080;20.040;2022-07-23T05:03:06;14.18;;;10.07;;
54557;SDS011;40452;50.080;20.040;2022-07-23T05:05:32;14.77;;;10.43;;
54557;SDS011;40452;50.080;20.040;2022-07-23T05:07:57;16.35;;;10.93;;
54557;SDS011;40452;50.080;20.040;2022-07-23T05:10:23;17.20;;;10.50;;
54557;SDS011;40452;50.080;20.040;2022-07-23T05:12:48;12.20;;;9.95;;
54557;SDS011;40452;50.080;20.040;2022-07-23T05:15:14;16.10;;;10.32;;
54557;SDS011;40452;50.080;20.040;2022-07-23T05:17:39;16.23;;;10.05;;
54557;SDS011;40452;50.080;20.040;2022-07-23T05:20:05;16.05;;;10.23;;
54557;SDS011;40452;50.080;20.040;2022-07-23T05:22:31;15.38;;;10.27;;
54557;SDS011;40452;50.080;20.040;2022-07-23T05:24:58;16.50;;;10.10;;
54557;SDS011;40452;50.080;20.040;2022-07-23T05:27:23;17.92;;;10.13;;
54557;SDS011;40452;50.080;20.040;2022-07-23T05:29:49;16.55;;;10.35;;
54557;SDS011;40452;50.080;20.040;2022-07-23T05:32:14;14.88;;;10.70;;
54557;SDS011;40452;50.080;20.040;2022-07-23T05:34:40;16.25;;;10.10;;
54557;SDS011;40452;50.080;20.040;2022-07-23T05:37:05;16.45;;;11.10;;
54557;SDS011;40452;50.080;20.040;2022-07-23T05:39:31;17.38;;;10.63;;
54557;SDS011;40452;50.080;20.040;2022-07-23T05:41:56;17.40;;;10.85;;
54557;SDS011;40452;50.080;20.040;2022-07-23T05:44:22;15.40;;;10.20;;
54557;SDS011;40452;50.080;20.040;2022-07-23T05:46:48;14.65;;;10.65;;
54557;SDS011;40452;50.080;20.040;2022-07-23T05:49:13;16.08;;;9.80;;
54557;SDS011;40452;50.080;20.040;2022-07-23T05:51:39;14.75;;;9.93;;
54557;SDS011;40452;50.080;20.040;2022-07-23T05:54:04;14.73;;;9.80;;
54557;SDS011;40452;50.080;20.040;2022-07-23T05:56:30;15.88;;;10.10;;
54557;SDS011;40452;50.080;20.040;2022-07-23T05:58:55;14.95;;;9.85;;
54557;SDS011;40452;50.080;20.040;2022-07-23T06:01:21;15.63;;;10.43;;
54557;SDS011;40452;50.080;20.040;2022-07-23T06:03:46;12.85;;;9.82;;
54557;SDS011;40452;50.080;20.040;2022-07-23T06:06:13;12.05;;;9.88;;
54557;SDS011;40452;50.080;20.040;2022-07-23T06:08:39;15.68;;;10.50;;
54557;SDS011;40452;50.080;20.040;2022-07-23T06:11:04;14.55;;;10.43;;
54557;SDS011;40452;50.080;20.040;2022-07-23T06:13:30;17.55;;;11.00;;
54557;SDS011;40452;50.080;20.040;2022-07-23T06:15:55;16.45;;;10.70;;
54557;SDS011;40452;50.080;20.040;2022-07-23T06:18:21;17.20;;;10.80;;
54557;SDS011;40452;50.080;20.040;2022-07-23T06:20:47;15.45;;;10.70;;
54557;SDS011;40452;50.080;20.040;2022-07-23T06:23:12;14.15;;;10.55;;
54557;SDS011;40452;50.080;20.040;2022-07-23T06:25:38;17.73;;;10.60;;
54557;SDS011;40452;50.080;20.040;2022-07-23T06:28:03;12.50;;;10.38;;
54557;SDS011;40452;50.080;20.040;2022-07-23T06:30:29;15.95;;;10.10;;
54557;SDS011;40452;50.080;20.040;2022-07-23T06:32:55;15.07;;;10.73;;
54557;SDS011;40452;50.080;20.040;2022-07-23T06:35:21;16.70;;;10.43;;
54557;SDS011;40452;50.080;20.040;2022-07-23T06:37:46;16.35;;;10.10;;
54557;SDS011;40452;50.080;20.040;2022-07-23T06:40:12;13.13;;;10.25;;
54557;SDS011;40452;50.080;20.040;2022-07-23T06:42:38;15.52;;;10.63;;
54557;SDS011;40452;50.080;20.040;2022-07-23T06:45:04;14.85;;;10.18;;
54557;SDS011;40452;50.080;20.040;2022-07-23T06:47:31;16.40;;;10.40;;
54557;SDS011;40452;50.080;20.040;2022-07-23T06:49:58;12.65;;;10.05;;
54557;SDS011;40452;50.080;20.040;2022-07-23T06:52:24;13.50;;;9.90;;
54557;SDS011;40452;50.080;20.040;2022-07-23T06:54:51;13.05;;;10.20;;
54557;SDS011;40452;50.080;20.040;2022-07-23T06:57:16;17.52;;;10.07;;
54557;SDS011;40452;50.080;20.040;2022-07-23T06:59:42;18.85;;;10.05;;
54557;SDS011;40452;50.080;20.040;2022-07-23T07:02:08;14.15;;;10.80;;
54557;SDS011;40452;50.080;20.040;2022-07-23T07:04:34;13.57;;;10.15;;
54557;SDS011;40452;50.080;20.040;2022-07-23T07:07:00;13.02;;;9.48;;
54557;SDS011;40452;50.080;20.040;2022-07-23T07:09:26;12.00;;;9.93;;
54557;SDS011;40452;50.080;20.040;2022-07-23T07:11:52;13.10;;;10.43;;
54557;SDS011;40452;50.080;20.040;2022-07-23T07:14:17;11.18;;;9.35;;
54557;SDS011;40452;50.080;20.040;2022-07-23T07:16:43;15.00;;;9.95;;
54557;SDS011;40452;50.080;20.040;2022-07-23T07:19:09;16.63;;;10.88;;
54557;SDS011;40452;50.080;20.040;2022-07-23T07:21:35;13.38;;;11.10;;
54557;SDS011;40452;50.080;20.040;2022-07-23T07:24:00;15.95;;;11.23;;
54557;SDS011;40452;50.080;20.040;2022-07-23T07:26:26;17.15;;;11.07;;
54557;SDS011;40452;50.080;20.040;2022-07-23T07:28:52;16.88;;;11.00;;
54557;SDS011;40452;50.080;20.040;2022-07-23T07:31:18;16.48;;;10.52;;
54557;SDS011;40452;50.080;20.040;2022-07-23T07:33:43;14.10;;;10.60;;
54557;SDS011;40452;50.080;20.040;2022-07-23T07:36:09;14.35;;;10.57;;
54557;SDS011;40452;50.080;20.040;2022-07-23T07:38:34;13.93;;;10.50;;
54557;SDS011;40452;50.080;20.040;2022-07-23T07:41:01;14.63;;;10.15;;
54557;SDS011;40452;50.080;20.040;2022-07-23T07:43:26;16.33;;;10.63;;
54557;SDS011;40452;50.080;20.040;2022-07-23T07:45:52;14.13;;;10.13;;
54557;SDS011;40452;50.080;20.040;2022-07-23T07:48:17;14.32;;;10.40;;
54557;SDS011;40452;50.080;20.040;2022-07-23T07:50:43;14.48;;;10.38;;
54557;SDS011;40452;50.080;20.040;2022-07-23T07:53:08;14.52;;;10.25;;
54557;SDS011;40452;50.080;20.040;2022-07-23T07:55:34;12.48;;;9.75;;
54557;SDS011;40452;50.080;20.040;2022-07-23T07:58:00;10.90;;;9.55;;
54557;SDS011;40452;50.080;20.040;2022-07-23T08:00:26;15.18;;;10.68;;
54557;SDS011;40452;50.080;20.040;2022-07-23T08:02:52;15.18;;;9.35;;
54557;SDS011;40452;50.080;20.040;2022-07-23T08:05:19;18.38;;;10.18;;
54557;SDS011;40452;50.080;20.040;2022-07-23T08:07:46;12.40;;;9.40;;
54557;SDS011;40452;50.080;20.040;2022-07-23T08:10:12;16.08;;;10.55;;
54557;SDS011;40452;50.080;20.040;2022-07-23T08:12:45;14.73;;;10.52;;
54557;SDS011;40452;50.080;20.040;2022-07-23T08:15:15;17.02;;;10.77;;
54557;SDS011;40452;50.080;20.040;2022-07-23T08:17:42;13.23;;;10.40;;
54557;SDS011;40452;50.080;20.040;2022-07-23T08:20:10;14.05;;;10.43;;
54557;SDS011;40452;50.080;20.040;2022-07-23T08:22:43;14.52;;;9.80;;
54557;SDS011;40452;50.080;20.040;2022-07-23T08:25:12;11.88;;;9.88;;
54557;SDS011;40452;50.080;20.040;2022-07-23T08:27:38;14.15;;;9.48;;
54557;SDS011;40452;50.080;20.040;2022-07-23T08:30:04;15.32;;;9.45;;
54557;SDS011;40452;50.080;20.040;2022-07-23T08:32:30;15.88;;;9.18;;
54557;SDS011;40452;50.080;20.040;2022-07-23T08:34:56;12.98;;;9.05;;
54557;SDS011;40452;50.080;20.040;2022-07-23T08:37:21;17.80;;;8.15;;
54557;SDS011;40452;50.080;20.040;2022-07-23T08:39:47;14.35;;;8.20;;
54557;SDS011;40452;50.080;20.040;2022-07-23T08:42:16;9.68;;;7.35;;
54557;SDS011;40452;50.080;20.040;2022-07-23T08:44:44;8.10;;;7.25;;
54557;SDS011;40452;50.080;20.040;2022-07-23T08:47:11;11.18;;;7.88;;
54557;SDS011;40452;50.080;20.040;2022-07-23T08:49:37;11.23;;;8.07;;
54557;SDS011;40452;50.080;20.040;2022-07-23T08:52:04;10.52;;;8.65;;
54557;SDS011;40452;50.080;20.040;2022-07-23T08:54:30;10.30;;;8.25;;
54557;SDS011;40452;50.080;20.040;2022-07-23T08:56:56;9.85;;;7.63;;
54557;SDS011;40452;50.080;20.040;2022-07-23T08:59:22;9.27;;;8.07;;
54557;SDS011;40452;50.080;20.040;2022-07-23T09:01:48;9.50;;;8.18;;
54557;SDS011;40452;50.080;20.040;2022-07-23T09:04:13;11.57;;;8.07;;
54557;SDS011;40452;50.080;20.040;2022-07-23T09:06:39;12.00;;;8.27;;
54557;SDS011;40452;50.080;20.040;2022-07-23T09:09:18;10.18;;;7.75;;
54557;SDS011;40452;50.080;20.040;2022-07-23T09:11:48;9.82;;;7.88;;
54557;SDS011;40452;50.080;20.040;2022-07-23T09:14:38;10.88;;;8.73;;
54557;SDS011;40452;50.080;20.040;2022-07-23T09:17:17;10.48;;;8.00;;
54557;SDS011;40452;50.080;20.040;2022-07-23T09:19:43;15.30;;;8.48;;
54557;SDS011;40452;50.080;20.040;2022-07-23T09:22:19;12.25;;;8.82;;
54557;SDS011;40452;50.080;20.040;2022-07-23T09:27:52;11.55;;;8.52;;
54557;SDS011;40452;50.080;20.040;2022-07-23T09:30:19;12.80;;;8.75;;
54557;SDS011;40452;50.080;20.040;2022-07-23T09:33:09;20.75;;;11.70;;
54557;SDS011;40452;50.080;20.040;2022-07-23T09:35:52;16.13;;;11.07;;
54557;SDS011;40452;50.080;20.040;2022-07-23T09:38:20;17.00;;;10.38;;
54557;SDS011;40452;50.080;20.040;2022-07-23T09:40:47;19.02;;;11.00;;
54557;SDS011;40452;50.080;20.040;2022-07-23T09:43:33;19.27;;;10.93;;
54557;SDS011;40452;50.080;20.040;2022-07-23T09:46:16;15.95;;;10.23;;
54557;SDS011;40452;50.080;20.040;2022-07-23T09:48:55;23.20;;;13.02;;
54557;SDS011;40452;50.080;20.040;2022-07-23T09:51:23;18.70;;;9.63;;
54557;SDS011;40452;50.080;20.040;2022-07-23T09:54:01;19.55;;;9.85;;
54557;SDS011;40452;50.080;20.040;2022-07-23T09:56:28;14.80;;;9.40;;
54557;SDS011;40452;50.080;20.040;2022-07-23T09:58:54;15.88;;;9.52;;
54557;SDS011;40452;50.080;20.040;2022-07-23T10:01:30;17.10;;;9.90;;
54557;SDS011;40452;50.080;20.040;2022-07-23T10:03:56;15.15;;;9.52;;
54557;SDS011;40452;50.080;20.040;2022-07-23T10:06:23;20.73;;;10.38;;
54557;SDS011;40452;50.080;20.040;2022-07-23T10:08:49;13.95;;;8.65;;
54557;SDS011;40452;50.080;20.040;2022-07-23T10:11:17;8.45;;;7.55;;
54557;SDS011;40452;50.080;20.040;2022-07-23T10:13:43;9.90;;;7.68;;
54557;SDS011;40452;50.080;20.040;2022-07-23T10:16:18;11.80;;;8.00;;
54557;SDS011;40452;50.080;20.040;2022-07-23T10:18:45;12.50;;;8.73;;
54557;SDS011;40452;50.080;20.040;2022-07-23T10:21:12;12.05;;;8.10;;
54557;SDS011;40452;50.080;20.040;2022-07-23T10:23:48;11.15;;;8.50;;
54557;SDS011;40452;50.080;20.040;2022-07-23T10:26:40;12.02;;;8.00;;
54557;SDS011;40452;50.080;20.040;2022-07-23T10:29:30;12.70;;;8.40;;
54557;SDS011;40452;50.080;20.040;2022-07-23T10:34:44;13.57;;;8.32;;
54557;SDS011;40452;50.080;20.040;2022-07-23T10:37:16;11.25;;;8.23;;
54557;SDS011;40452;50.080;20.040;2022-07-23T10:42:37;10.02;;;7.88;;
54557;SDS011;40452;50.080;20.040;2022-07-23T10:51:10;9.80;;;8.35;;
54557;SDS011;40452;50.080;20.040;2022-07-23T10:53:57;10.52;;;8.30;;
54557;SDS011;40452;50.080;20.040;2022-07-23T10:59:21;10.38;;;8.38;;
54557;SDS011;40452;50.080;20.040;2022-07-23T11:01:47;11.38;;;8.80;;
54557;SDS011;40452;50.080;20.040;2022-07-23T11:04:12;11.15;;;7.97;;
54557;SDS011;40452;50.080;20.040;2022-07-23T11:15:01;14.60;;;8.07;;
54557;SDS011;40452;50.080;20.040;2022-07-23T11:17:38;11.02;;;8.65;;
54557;SDS011;40452;50.080;20.040;2022-07-23T11:20:20;9.57;;;8.15;;
54557;SDS011;40452;50.080;20.040;2022-07-23T11:22:51;12.32;;;8.82;;
54557;SDS011;40452;50.080;20.040;2022-07-23T11:27:49;12.50;;;8.52;;
54557;SDS011;40452;50.080;20.040;2022-07-23T11:30:37;12.40;;;8.32;;
54557;SDS011;40452;50.080;20.040;2022-07-23T11:35:32;10.32;;;7.95;;
54557;SDS011;40452;50.080;20.040;2022-07-23T11:38:03;10.88;;;7.53;;
54557;SDS011;40452;50.080;20.040;2022-07-23T11:40:31;11.05;;;7.05;;
54557;SDS011;40452;50.080;20.040;2022-07-23T11:45:34;9.27;;;6.35;;
54557;SDS011;40452;50.080;20.040;2022-07-23T11:48:01;6.85;;;6.15;;
54557;SDS011;40452;50.080;20.040;2022-07-23T11:50:28;8.43;;;5.95;;
54557;SDS011;40452;50.080;20.040;2022-07-23T11:52:54;9.05;;;6.32;;
54557;SDS011;40452;50.080;20.040;2022-07-23T11:55:20;8.35;;;6.38;;
54557;SDS011;40452;50.080;20.040;2022-07-23T11:57:46;10.48;;;6.28;;
54557;SDS011;40452;50.080;20.040;2022-07-23T12:00:16;8.20;;;6.30;;
54557;SDS011;40452;50.080;20.040;2022-07-23T12:02:46;7.38;;;6.28;;
54557;SDS011;40452;50.080;20.040;2022-07-23T12:05:14;8.23;;;6.57;;
54557;SDS011;40452;50.080;20.040;2022-07-23T12:07:45;7.35;;;5.95;;
54557;SDS011;40452;50.080;20.040;2022-07-23T12:13:01;9.77;;;6.05;;
54557;SDS011;40452;50.080;20.040;2022-07-23T12:15:42;12.40;;;5.88;;
54557;SDS011;40452;50.080;20.040;2022-07-23T12:18:10;9.27;;;6.60;;
54557;SDS011;40452;50.080;20.040;2022-07-23T12:20:38;9.05;;;6.45;;
54557;SDS011;40452;50.080;20.040;2022-07-23T12:23:15;9.15;;;6.45;;
54557;SDS011;40452;50.080;20.040;2022-07-23T12:25:43;9.50;;;6.60;;
54557;SDS011;40452;50.080;20.040;2022-07-23T12:28:13;8.27;;;6.25;;
54557;SDS011;40452;50.080;20.040;2022-07-23T12:30:47;10.38;;;6.93;;
54557;SDS011;40452;50.080;20.040;2022-07-23T12:35:46;8.55;;;6.40;;
54557;SDS011;40452;50.080;20.040;2022-07-23T12:38:20;10.05;;;6.57;;
54557;SDS011;40452;50.080;20.040;2022-07-23T12:40:48;10.93;;;6.88;;
54557;SDS011;40452;50.080;20.040;2022-07-23T12:43:22;9.13;;;6.63;;
54557;SDS011;40452;50.080;20.040;2022-07-23T12:48:31;8.80;;;6.63;;
54557;SDS011;40452;50.080;20.040;2022-07-23T12:51:02;8.95;;;6.10;;
54557;SDS011;40452;50.080;20.040;2022-07-23T12:53:31;7.15;;;6.40;;
54557;SDS011;40452;50.080;20.040;2022-07-23T13:09:23;8.13;;;6.72;;
54557;SDS011;40452;50.080;20.040;2022-07-23T13:11:51;9.10;;;6.63;;
54557;SDS011;40452;50.080;20.040;2022-07-23T13:14:18;7.53;;;6.60;;
54557;SDS011;40452;50.080;20.040;2022-07-23T13:16:45;8.02;;;6.57;;
54557;SDS011;40452;50.080;20.040;2022-07-23T13:19:11;8.45;;;6.05;;
54557;SDS011;40452;50.080;20.040;2022-07-23T13:21:37;10.02;;;6.15;;
54557;SDS011;40452;50.080;20.040;2022-07-23T13:24:04;10.73;;;7.10;;
54557;SDS011;40452;50.080;20.040;2022-07-23T13:26:30;11.07;;;6.70;;
54557;SDS011;40452;50.080;20.040;2022-07-23T13:28:55;7.68;;;6.88;;
54557;SDS011;40452;50.080;20.040;2022-07-23T13:31:21;8.00;;;6.85;;
54557;SDS011;40452;50.080;20.040;2022-07-23T13:33:47;11.52;;;6.97;;
54557;SDS011;40452;50.080;20.040;2022-07-23T13:36:12;10.63;;;6.70;;
54557;SDS011;40452;50.080;20.040;2022-07-23T13:38:38;11.27;;;6.80;;
54557;SDS011;40452;50.080;20.040;2022-07-23T13:41:04;11.00;;;6.75;;
54557;SDS011;40452;50.080;20.040;2022-07-23T13:43:30;7.13;;;6.43;;
54557;SDS011;40452;50.080;20.040;2022-07-23T13:45:56;9.75;;;7.18;;
54557;SDS011;40452;50.080;20.040;2022-07-23T13:48:22;8.68;;;7.10;;
54557;SDS011;40452;50.080;20.040;2022-07-23T13:50:47;11.68;;;6.93;;
54557;SDS011;40452;50.080;20.040;2022-07-23T13:53:15;8.88;;;6.53;;
54557;SDS011;40452;50.080;20.040;2022-07-23T13:55:43;9.20;;;6.93;;
54557;SDS011;40452;50.080;20.040;2022-07-23T13:58:09;7.93;;;6.78;;
54557;SDS011;40452;50.080;20.040;2022-07-23T14:00:37;10.32;;;6.90;;
54557;SDS011;40452;50.080;20.040;2022-07-23T14:03:04;8.95;;;6.35;;
54557;SDS011;40452;50.080;20.040;2022-07-23T14:05:30;8.60;;;6.85;;
54557;SDS011;40452;50.080;20.040;2022-07-23T14:07:56;10.55;;;7.00;;
54557;SDS011;40452;50.080;20.040;2022-07-23T14:10:22;7.82;;;6.47;;
54557;SDS011;40452;50.080;20.040;2022-07-23T14:12:49;8.18;;;6.85;;
54557;SDS011;40452;50.080;20.040;2022-07-23T14:15:16;8.43;;;6.95;;
54557;SDS011;40452;50.080;20.040;2022-07-23T14:17:42;7.95;;;7.15;;
54557;SDS011;40452;50.080;20.040;2022-07-23T14:20:10;8.90;;;6.95;;
54557;SDS011;40452;50.080;20.040;2022-07-23T14:22:36;8.50;;;7.25;;
54557;SDS011;40452;50.080;20.040;2022-07-23T14:25:02;8.88;;;6.95;;
54557;SDS011;40452;50.080;20.040;2022-07-23T14:27:28;8.63;;;6.68;;
54557;SDS011;40452;50.080;20.040;2022-07-23T14:29:54;10.40;;;7.43;;
54557;SDS011;40452;50.080;20.040;2022-07-23T14:32:20;9.90;;;7.10;;
54557;SDS011;40452;50.080;20.040;2022-07-23T14:34:46;7.22;;;6.35;;
54557;SDS011;40452;50.080;20.040;2022-07-23T14:37:12;8.07;;;6.75;;
54557;SDS011;40452;50.080;20.040;2022-07-23T14:39:38;8.75;;;7.15;;
54557;SDS011;40452;50.080;20.040;2022-07-23T14:42:05;8.07;;;7.28;;
54557;SDS011;40452;50.080;20.040;2022-07-23T14:44:31;7.47;;;6.68;;
54557;SDS011;40452;50.080;20.040;2022-07-23T14:46:57;8.75;;;7.22;;
54557;SDS011;40452;50.080;20.040;2022-07-23T14:49:23;10.07;;;7.32;;
54557;SDS011;40452;50.080;20.040;2022-07-23T14:51:48;10.00;;;7.28;;
54557;SDS011;40452;50.080;20.040;2022-07-23T14:54:14;9.05;;;6.80;;
54557;SDS011;40452;50.080;20.040;2022-07-23T14:56:40;9.13;;;6.88;;
54557;SDS011;40452;50.080;20.040;2022-07-23T14:59:07;9.63;;;6.80;;
54557;SDS011;40452;50.080;20.040;2022-07-23T15:01:32;8.27;;;6.60;;
54557;SDS011;40452;50.080;20.040;2022-07-23T15:03:59;8.15;;;6.80;;
54557;SDS011;40452;50.080;20.040;2022-07-23T15:06:25;8.18;;;7.03;;
54557;SDS011;40452;50.080;20.040;2022-07-23T15:08:50;9.77;;;7.25;;
54557;SDS011;40452;50.080;20.040;2022-07-23T15:11:16;10.82;;;7.10;;
54557;SDS011;40452;50.080;20.040;2022-07-23T15:13:42;11.35;;;7.32;;
54557;SDS011;40452;50.080;20.040;2022-07-23T15:16:08;10.93;;;7.13;;
54557;SDS011;40452;50.080;20.040;2022-07-23T15:18:34;12.27;;;7.68;;
54557;SDS011;40452;50.080;20.040;2022-07-23T15:21:00;10.95;;;7.28;;
54557;SDS011;40452;50.080;20.040;2022-07-23T15:23:27;16.50;;;7.15;;
54557;SDS011;40452;50.080;20.040;2022-07-23T15:25:53;10.63;;;6.70;;
54557;SDS011;40452;50.080;20.040;2022-07-23T15:28:20;16.35;;;7.07;;
54557;SDS011;40452;50.080;20.040;2022-07-23T15:30:46;29.10;;;7.15;;
54557;SDS011;40452;50.080;20.040;2022-07-23T16:03:12;13.55;;;8.98;;
54557;SDS011;40452;50.080;20.040;2022-07-23T16:05:39;12.80;;;8.88;;
54557;SDS011;40452;50.080;20.040;2022-07-23T16:08:06;11.13;;;8.98;;
54557;SDS011;40452;50.080;20.040;2022-07-23T16:10:32;13.55;;;8.60;;
54557;SDS011;40452;50.080;20.040;2022-07-23T16:12:57;15.07;;;9.80;;
54557;SDS011;40452;50.080;20.040;2022-07-23T16:15:23;20.02;;;10.00;;
54557;SDS011;40452;50.080;20.040;2022-07-23T16:17:49;13.73;;;9.05;;
54557;SDS011;40452;50.080;20.040;2022-07-23T16:20:15;13.23;;;9.20;;
54557;SDS011;40452;50.080;20.040;2022-07-23T16:22:41;13.75;;;9.90;;
54557;SDS011;40452;50.080;20.040;2022-07-23T16:25:07;14.60;;;9.35;;
54557;SDS011;40452;50.080;20.040;2022-07-23T16:27:34;13.68;;;9.77;;
54557;SDS011;40452;50.080;20.040;2022-07-23T16:30:00;11.48;;;9.40;;
54557;SDS011;40452;50.080;20.040;2022-07-23T16:32:26;12.75;;;10.30;;
54557;SDS011;40452;50.080;20.040;2022-07-23T16:34:52;12.50;;;10.43;;
54557;SDS011;40452;50.080;20.040;2022-07-23T16:37:17;14.43;;;11.73;;
54557;SDS011;40452;50.080;20.040;2022-07-23T16:39:43;14.68;;;10.25;;
54557;SDS011;40452;50.080;20.040;2022-07-23T16:42:09;13.00;;;11.20;;
54557;SDS011;40452;50.080;20.040;2022-07-23T16:44:34;15.23;;;11.55;;
54557;SDS011;40452;50.080;20.040;2022-07-23T16:47:00;13.48;;;11.38;;
54557;SDS011;40452;50.080;20.040;2022-07-23T16:49:26;17.58;;;11.23;;
54557;SDS011;40452;50.080;20.040;2022-07-23T16:51:51;13.75;;;11.23;;
54557;SDS011;40452;50.080;20.040;2022-07-23T16:54:17;13.02;;;10.68;;
54557;SDS011;40452;50.080;20.040;2022-07-23T16:56:42;15.43;;;11.10;;
54557;SDS011;40452;50.080;20.040;2022-07-23T16:59:08;13.23;;;10.43;;
54557;SDS011;40452;50.080;20.040;2022-07-23T17:01:33;16.55;;;12.13;;
54557;SDS011;40452;50.080;20.040;2022-07-23T17:03:59;13.15;;;11.60;;
54557;SDS011;40452;50.080;20.040;2022-07-23T17:06:25;14.00;;;11.50;;
54557;SDS011;40452;50.080;20.040;2022-07-23T17:08:50;14.57;;;11.77;;
54557;SDS011;40452;50.080;20.040;2022-07-23T17:11:16;16.92;;;12.00;;
54557;SDS011;40452;50.080;20.040;2022-07-23T17:13:41;14.88;;;11.60;;
54557;SDS011;40452;50.080;20.040;2022-07-23T17:16:07;17.73;;;11.55;;
54557;SDS011;40452;50.080;20.040;2022-07-23T17:18:33;14.02;;;11.90;;
54557;SDS011;40452;50.080;20.040;2022-07-23T17:20:58;18.55;;;11.50;;
54557;SDS011;40452;50.080;20.040;2022-07-23T17:23:24;14.68;;;11.38;;
54557;SDS011;40452;50.080;20.040;2022-07-23T17:25:49;14.20;;;10.20;;
54557;SDS011;40452;50.080;20.040;2022-07-23T17:28:15;18.52;;;11.93;;
54557;SDS011;40452;50.080;20.040;2022-07-23T17:30:40;15.00;;;10.75;;
54557;SDS011;40452;50.080;20.040;2022-07-23T17:33:06;15.30;;;10.50;;
54557;SDS011;40452;50.080;20.040;2022-07-23T17:35:31;19.25;;;10.02;;
54557;SDS011;40452;50.080;20.040;2022-07-23T17:37:57;12.38;;;9.57;;
54557;SDS011;40452;50.080;20.040;2022-07-23T17:40:23;11.85;;;8.80;;
54557;SDS011;40452;50.080;20.040;2022-07-23T17:42:49;10.35;;;9.20;;
54557;SDS011;40452;50.080;20.040;2022-07-23T17:45:14;12.57;;;9.05;;
54557;SDS011;40452;50.080;20.040;2022-07-23T17:47:43;17.52;;;9.80;;
54557;SDS011;40452;50.080;20.040;2022-07-23T17:50:11;11.18;;;8.20;;
54557;SDS011;40452;50.080;20.040;2022-07-23T17:52:48;9.82;;;8.18;;
54557;SDS011;40452;50.080;20.040;2022-07-23T17:55:15;11.18;;;8.60;;
54557;SDS011;40452;50.080;20.040;2022-07-23T17:57:42;12.35;;;9.00;;
54557;SDS011;40452;50.080;20.040;2022-07-23T18:00:09;11.43;;;8.45;;
54557;SDS011;40452;50.080;20.040;2022-07-23T18:02:36;12.75;;;9.07;;
54557;SDS011;40452;50.080;20.040;2022-07-23T18:05:02;12.65;;;8.68;;
54557;SDS011;40452;50.080;20.040;2022-07-23T18:07:28;10.18;;;8.32;;
54557;SDS011;40452;50.080;20.040;2022-07-23T18:09:53;12.95;;;8.95;;
54557;SDS011;40452;50.080;20.040;2022-07-23T18:12:19;12.77;;;8.80;;
54557;SDS011;40452;50.080;20.040;2022-07-23T18:14:44;15.50;;;8.95;;
54557;SDS011;40452;50.080;20.040;2022-07-23T18:17:10;14.05;;;8.80;;
54557;SDS011;40452;50.080;20.040;2022-07-23T18:19:36;10.15;;;9.05;;
54557;SDS011;40452;50.080;20.040;2022-07-23T18:22:01;12.52;;;8.85;;
54557;SDS011;40452;50.080;20.040;2022-07-23T18:24:27;11.27;;;9.20;;
54557;SDS011;40452;50.080;20.040;2022-07-23T18:26:52;11.00;;;8.68;;